Portada
METAR-TAF:

METAR-TAF

Aeroports :

Colombo, Sri Lanka

latitud: 07-10N, longitud: 079-53E, altitud: 8 m

Observació

L'informe es va fer fa 34 minuts, a les 22:10 UTC
Vent 1 kt amb direcció variable
Temperatura 24°C
Humitat 94%
Pressió 1010 hPa
Visibilitat 10 km o més
Escasses núvols a una alçada de 1700 ft

METAR: VCBI 242210Z VRB01KT 9999 FEW017 24/23 Q1010 NOSIG

Hora: 04:14 (22:44 UTC)

Pronòstic

L'informe es va fer fa 5 hores i 44 minuts, a les 17:00 UTC
Pronòstic vàlid del 24 a les 18 UTC al 25 a les 24 UTC
Vent 5 kt amb direcció variable
Visibilitat 10 km o més
Núvols disperses a una alçada de 1700 ft
Probabilitat 30% :
Temporalment
l' 24 a les 20 UTC al 25 a les 03 UTC
Visibilitat: 7000 m
Cel ennuvolat a una alçada de 1600 ft
Escasses núvols a una alçada de 2000 ft, Cumulonimbus.

TAF: VCBI 241700Z 2418/2524 VRB05KT 9999 SCT017 TX30/2507Z TN24/2500Z PROB30 TEMPO 2420/2503 7000 -TSRA/SHRA BKN016 FEW020CB

Observacions i pronòstics meteorològics de més de 4000 aeroports (METAR i TAF).

Les estacions disponibles són els punts grocs i vermells al mapa.

Posi el ratolí al punt desitjat per veure el nom de l'estació.

Feu clic per veure les observacions i els pronòstics meteorològics.

Per canviar el mapa: feu clic els botons verds amb una creu de color negre per apropar; al botó verd amb un guió per allunyar la imatge; o en les fletxes verdes per a mapes adjacents.


METAR-TAF: